Sunday, January 20, 2019, 6:57 AM GMT
Back to Local

CYYY, Mont Joli, Que.

Location: , , Canada Lat: 48.6
Local Time: 6:57 AM GMT ( 6:57 GMT) Lon: -68.217
Time Zone: GMT Elev: 157 ft

Show me the last for .
Show Coded

Time T Td Feel RH Dir Speed Gust Alt SLP Vis Weather Sky Remarks
2019-01-20 06:35 -11 -18 -25 69 150° 6 - 30.45 30.48 15 FEW010 OVC110 None
2019-01-20 06:00 -11 -18 -23 69 160° 5 - 30.46 30.49 10 -SN SCT010 OVC110 None
2019-01-20 05:00 -11 -18 - 69 Variable 2 - 30.47 30.50 6 -SN OVC018 None
2019-01-20 04:00 -11 -18 -26 69 350° 7 - 30.49 30.52 6 -SN OVC020 None
2019-01-20 03:00 -11 -18 -26 69 340° 7 - 30.49 30.51 6 -SN OVC020 None
2019-01-20 02:00 -11 -20 -25 63 350° 6 - 30.49 30.51 10 -SN OVC023 None
2019-01-20 01:00 -11 -20 -29 63 340° 9 - 30.49 30.51 15 -SN BKN025 OVC140 None
2019-01-20 00:00 -9 -20 -28 57 340° 10 - 30.48 30.51 30 -SN BKN025 OVC140 None
2019-01-19 23:00 -9 -17 - 69 Variable 2 - 30.47 30.50 10 -SN OVC028 None
2019-01-19 22:00 -11 -17 -25 76 200° 6 - 30.47 30.50 10 -SN OVC026 None
2019-01-19 21:00 -11 -18 -28 69 220° 8 - 30.45 30.47 15 -SN OVC025 None
2019-01-19 20:00 -9 -18 -23 63 250° 6 - 30.43 30.45 10 -SN BKN021 None
2019-01-19 19:00 -11 -20 -28 63 260° 8 - 30.43 30.46 10 -SN OVC024 None
2019-01-19 18:00 -11 -20 -32 63 270° 13 - 30.45 30.47 10 -SN BKN024 None
2019-01-19 17:00 -11 -20 -34 63 270° 15 - 30.45 30.47 10 -SN BKN024 None
2019-01-19 16:00 -11 -22 -34 57 270° 15 - 30.46 30.48 15 -SN BKN021 None
2019-01-19 15:00 -13 -22 -38 62 270° 13 18 30.45 30.47 15 BKN020 None
2019-01-19 14:00 -13 -22 -34 62 280° 13 - 30.43 30.45 10 -SN OVC022 None
2019-01-19 13:00 -13 -20 -37 69 290° 16 - 30.40 30.42 10 -SN OVC020 None
2019-01-19 12:49 -13 -20 -39 69 290° 14 20 30.40 30.42 10 -SN OVC021 None
2019-01-19 12:00 -11 -20 -39 63 290° 17 25 30.35 30.37 15 OVC020 Pressure rising rapidly
2019-01-19 11:00 -9 -18 -38 63 300° 18 28 30.31 30.33 15 BKN022 Pressure rising rapidly
2019-01-19 10:00 -8 -17 -36 63 300° 21 29 30.25 30.27 15 SCT020 Pressure rising rapidly
2019-01-19 09:00 -2 -13 -28 58 290° 18 28 30.22 30.24 15 BKN030 Pressure rising rapidly
2019-01-19 08:00 -2 -15 -30 53 300° 20 32 30.18 30.19 15 SCT035 None
2019-01-19 07:15 1 -13 -24 49 310° 23 29 30.15 30.17 15 BKN040 None
2019-01-19 07:00 1 -13 -24 49 290° 22 31 30.14 30.16 10 -SN DRSN BKN040 None

Support USWX by starting your Amazon purchase here.